This is the latest recevied weather packets stored in our database for station/object VK4AB-13. If no packets are shown the sender has not sent any weather packets the latest 10 day(s).
| Time | Temp. | Humidity | Pressure | Rain* | Wind** | Luminosity | Snow |
|---|---|---|---|---|---|---|---|
| 1777438739 | 24.44° C | 62% | 1022.5 hPa | 0 mm | - | 158 W/m² | - |
| 1777438439 | 25° C | 59% | 1022.4 hPa | 0 mm | - | 132 W/m² | - |
| 1777438139 | 25.56° C | 59% | 1022.3 hPa | 0 mm | - | 91 W/m² | - |
| 1777437839 | 26.11° C | 57% | 1022.2 hPa | 0 mm | - | 606 W/m² | - |
| 1777437539 | 25.56° C | 58% | 1022.2 hPa | 0 mm | - | 584 W/m² | - |
| 1777437239 | 25° C | 59% | 1022.3 hPa | 0.25 mm | - | 550 W/m² | - |
| 1777436939 | 25° C | 58% | 1022.3 hPa | 0.25 mm | - | 104 W/m² | - |
| 1777436639 | 25.56° C | 57% | 1022.3 hPa | 0.25 mm | - | 88 W/m² | - |
| 1777436339 | 26.11° C | 58% | 1022.2 hPa | 0.25 mm | - | 649 W/m² | - |
| 1777436039 | 26.11° C | 56% | 1022.2 hPa | 0.25 mm | - | 417 W/m² | - |
| 1777435739 | 26.11° C | 55% | 1022.2 hPa | 0.25 mm | - | 227 W/m² | - |
| 1777435439 | 26.11° C | 55% | 1022.3 hPa | 0.25 mm | - | 705 W/m² | - |
| 1777435139 | 26.11° C | 55% | 1022.3 hPa | 0.25 mm | - | 654 W/m² | - |
| 1777434839 | 26.11° C | 53% | 1022.2 hPa | 0.25 mm | - | 615 W/m² | - |
| 1777434539 | 26.11° C | 52% | 1022.4 hPa | 0.25 mm | - | 120 W/m² | - |
| 1777434239 | 26.11° C | 56% | 1022.4 hPa | 0.25 mm | - | 677 W/m² | - |
| 1777433939 | 25.56° C | 59% | 1022.3 hPa | 0.25 mm | - | 659 W/m² | - |
| 1777433639 | 25.56° C | 58% | 1022.4 hPa | 0 mm | - | 155 W/m² | - |
| 1777433339 | 25° C | 59% | 1022.4 hPa | 0 mm | - | 715 W/m² | - |
| 1777433039 | 25° C | 60% | 1022.5 hPa | 0 mm | - | 680 W/m² | - |
| 1777432739 | 24.44° C | 62% | 1022.5 hPa | 0 mm | - | 675 W/m² | - |
| 1777432439 | 24.44° C | 64% | 1022.6 hPa | 0 mm | - | 703 W/m² | - |
| 1777432139 | 24.44° C | 65% | 1022.6 hPa | 0 mm | - | 519 W/m² | - |
| 1777431839 | 23.89° C | 67% | 1022.7 hPa | 0 mm | - | 279 W/m² | - |
| 1777431539 | 23.33° C | 68% | 1022.8 hPa | 0.25 mm | - | 250 W/m² | - |
* Rain latest hour (hover to see other rain measurements)
** Current wind speed in m/s (hover to see current wind gust speed)